sensor_id;sensor_type;location;lat;lon;timestamp;temperature;humidity
16838;DHT22;19510;54.486;9.046;2023-02-04T07:23:47;2.20;99.90
16838;DHT22;19510;54.486;9.046;2023-02-04T07:26:13;2.20;99.90
16838;DHT22;19510;54.486;9.046;2023-02-04T07:28:39;2.30;99.90
16838;DHT22;19510;54.486;9.046;2023-02-04T07:31:05;2.20;99.90
16838;DHT22;19510;54.486;9.046;2023-02-04T07:33:31;2.20;99.90
16838;DHT22;19510;54.486;9.046;2023-02-04T07:35:57;2.20;99.90
16838;DHT22;19510;54.486;9.046;2023-02-04T07:38:22;2.20;99.90
16838;DHT22;19510;54.486;9.046;2023-02-04T07:40:51;2.30;99.90
16838;DHT22;19510;54.486;9.046;2023-02-04T07:43:17;2.20;99.90
16838;DHT22;19510;54.486;9.046;2023-02-04T07:45:42;2.30;99.90
16838;DHT22;19510;54.486;9.046;2023-02-04T07:48:08;2.30;99.90
16838;DHT22;19510;54.486;9.046;2023-02-04T07:50:35;2.30;99.90
16838;DHT22;19510;54.486;9.046;2023-02-04T07:53:01;2.40;99.90
16838;DHT22;19510;54.486;9.046;2023-02-04T07:55:27;2.40;99.90
16838;DHT22;19510;54.486;9.046;2023-02-04T07:57:53;2.40;99.90
16838;DHT22;19510;54.486;9.046;2023-02-04T08:00:19;2.40;99.90
16838;DHT22;19510;54.486;9.046;2023-02-04T08:02:45;2.40;99.90
16838;DHT22;19510;54.486;9.046;2023-02-04T08:05:11;2.50;99.90
16838;DHT22;19510;54.486;9.046;2023-02-04T08:07:38;2.60;99.90
16838;DHT22;19510;54.486;9.046;2023-02-04T08:10:09;2.70;99.90
16838;DHT22;19510;54.486;9.046;2023-02-04T08:12:35;2.90;99.90
16838;DHT22;19510;54.486;9.046;2023-02-04T08:15:01;3.60;99.90
16838;DHT22;19510;54.486;9.046;2023-02-04T08:17:28;3.70;99.90
16838;DHT22;19510;54.486;9.046;2023-02-04T08:19:54;3.60;99.90
16838;DHT22;19510;54.486;9.046;2023-02-04T08:22:21;3.40;99.90
16838;DHT22;19510;54.486;9.046;2023-02-04T08:24:47;3.30;99.90
16838;DHT22;19510;54.486;9.046;2023-02-04T08:27:15;3.30;99.90
16838;DHT22;19510;54.486;9.046;2023-02-04T08:29:41;3.20;99.90
16838;DHT22;19510;54.486;9.046;2023-02-04T08:32:08;3.20;99.90
16838;DHT22;19510;54.486;9.046;2023-02-04T08:34:35;3.20;99.90
16838;DHT22;19510;54.486;9.046;2023-02-04T08:37:01;3.20;99.90
16838;DHT22;19510;54.486;9.046;2023-02-04T08:39:26;3.20;99.90
16838;DHT22;19510;54.486;9.046;2023-02-04T08:41:52;3.20;99.90
16838;DHT22;19510;54.486;9.046;2023-02-04T08:44:18;3.20;99.90
16838;DHT22;19510;54.486;9.046;2023-02-04T08:46:44;3.30;99.90
16838;DHT22;19510;54.486;9.046;2023-02-04T08:49:10;3.30;99.90
16838;DHT22;19510;54.486;9.046;2023-02-04T08:51:38;3.30;99.90
16838;DHT22;19510;54.486;9.046;2023-02-04T08:54:03;3.40;99.90
16838;DHT22;19510;54.486;9.046;2023-02-04T08:56:29;3.40;99.90
16838;DHT22;19510;54.486;9.046;2023-02-04T08:58:57;3.50;99.90
16838;DHT22;19510;54.486;9.046;2023-02-04T09:01:23;3.40;99.90
16838;DHT22;19510;54.486;9.046;2023-02-04T09:03:48;3.50;99.90
16838;DHT22;19510;54.486;9.046;2023-02-04T09:06:14;3.50;99.90
16838;DHT22;19510;54.486;9.046;2023-02-04T09:08:40;3.50;99.90
16838;DHT22;19510;54.486;9.046;2023-02-04T09:11:05;3.50;99.90
16838;DHT22;19510;54.486;9.046;2023-02-04T09:13:31;3.60;99.90
16838;DHT22;19510;54.486;9.046;2023-02-04T09:16:00;3.60;99.90
16838;DHT22;19510;54.486;9.046;2023-02-04T09:18:26;3.60;99.90
16838;DHT22;19510;54.486;9.046;2023-02-04T09:20:54;3.70;99.90
16838;DHT22;19510;54.486;9.046;2023-02-04T09:23:22;3.70;99.90
16838;DHT22;19510;54.486;9.046;2023-02-04T09:25:52;3.80;99.90
16838;DHT22;19510;54.486;9.046;2023-02-04T09:28:17;3.80;99.90
16838;DHT22;19510;54.486;9.046;2023-02-04T09:30:49;3.90;99.90
16838;DHT22;19510;54.486;9.046;2023-02-04T09:33:15;3.90;99.90
16838;DHT22;19510;54.486;9.046;2023-02-04T09:35:41;3.90;99.90
16838;DHT22;19510;54.486;9.046;2023-02-04T09:38:07;4.00;99.90
16838;DHT22;19510;54.486;9.046;2023-02-04T09:40:35;4.10;99.90
16838;DHT22;19510;54.486;9.046;2023-02-04T09:43:02;4.10;99.90
16838;DHT22;19510;54.486;9.046;2023-02-04T09:45:32;4.10;99.90
16838;DHT22;19510;54.486;9.046;2023-02-04T09:48:00;4.20;99.90
16838;DHT22;19510;54.486;9.046;2023-02-04T09:50:27;4.30;99.90
16838;DHT22;19510;54.486;9.046;2023-02-04T09:55:37;4.30;99.90
16838;DHT22;19510;54.486;9.046;2023-02-04T09:58:11;4.30;99.90
16838;DHT22;19510;54.486;9.046;2023-02-04T10:00:38;4.40;99.90
16838;DHT22;19510;54.486;9.046;2023-02-04T10:03:14;4.40;99.90
16838;DHT22;19510;54.486;9.046;2023-02-04T10:05:41;4.40;99.90
16838;DHT22;19510;54.486;9.046;2023-02-04T10:08:13;4.90;99.90
16838;DHT22;19510;54.486;9.046;2023-02-04T10:10:39;5.90;99.90
16838;DHT22;19510;54.486;9.046;2023-02-04T10:13:07;6.60;99.90
16838;DHT22;19510;54.486;9.046;2023-02-04T10:15:38;7.10;99.90
16838;DHT22;19510;54.486;9.046;2023-02-04T10:18:05;6.90;99.90
16838;DHT22;19510;54.486;9.046;2023-02-04T10:20:33;6.50;99.90
16838;DHT22;19510;54.486;9.046;2023-02-04T10:22:59;6.30;99.90
16838;DHT22;19510;54.486;9.046;2023-02-04T10:25:25;6.20;99.90
16838;DHT22;19510;54.486;9.046;2023-02-04T10:27:52;5.90;99.90
16838;DHT22;19510;54.486;9.046;2023-02-04T10:30:29;5.70;99.90
16838;DHT22;19510;54.486;9.046;2023-02-04T10:33:23;5.60;99.90
16838;DHT22;19510;54.486;9.046;2023-02-04T10:35:54;5.50;99.90
16838;DHT22;19510;54.486;9.046;2023-02-04T10:38:21;5.40;99.90
16838;DHT22;19510;54.486;9.046;2023-02-04T10:40:48;5.30;99.90
16838;DHT22;19510;54.486;9.046;2023-02-04T10:43:24;5.20;99.90
16838;DHT22;19510;54.486;9.046;2023-02-04T10:46:03;5.30;99.90
16838;DHT22;19510;54.486;9.046;2023-02-04T10:48:29;5.20;99.90
16838;DHT22;19510;54.486;9.046;2023-02-04T10:51:03;5.20;99.90
16838;DHT22;19510;54.486;9.046;2023-02-04T10:53:29;5.20;99.90
16838;DHT22;19510;54.486;9.046;2023-02-04T10:56:33;5.20;99.90
16838;DHT22;19510;54.486;9.046;2023-02-04T10:58:59;5.20;99.90
16838;DHT22;19510;54.486;9.046;2023-02-04T11:01:25;5.20;99.90
16838;DHT22;19510;54.486;9.046;2023-02-04T11:03:53;5.20;99.90
16838;DHT22;19510;54.486;9.046;2023-02-04T11:09:41;5.20;99.90
16838;DHT22;19510;54.486;9.046;2023-02-04T11:12:36;5.20;99.90
16838;DHT22;19510;54.486;9.046;2023-02-04T11:15:03;5.20;99.90
16838;DHT22;19510;54.486;9.046;2023-02-04T11:17:34;5.20;99.90
16838;DHT22;19510;54.486;9.046;2023-02-04T11:20:16;5.20;99.90
16838;DHT22;19510;54.486;9.046;2023-02-04T11:23:27;5.30;99.90
16838;DHT22;19510;54.486;9.046;2023-02-04T11:26:10;5.30;99.90
16838;DHT22;19510;54.486;9.046;2023-02-04T11:37:04;5.40;99.90
16838;DHT22;19510;54.486;9.046;2023-02-04T11:39:44;5.50;99.90
16838;DHT22;19510;54.486;9.046;2023-02-04T11:42:22;5.50;99.90
16838;DHT22;19510;54.486;9.046;2023-02-04T11:47:37;5.60;99.90
16838;DHT22;19510;54.486;9.046;2023-02-04T11:50:25;5.70;99.90
16838;DHT22;19510;54.486;9.046;2023-02-04T11:52:53;5.90;99.90
16838;DHT22;19510;54.486;9.046;2023-02-04T11:55:19;6.00;99.90
16838;DHT22;19510;54.486;9.046;2023-02-04T11:57:52;6.20;99.90
16838;DHT22;19510;54.486;9.046;2023-02-04T12:00:20;6.30;99.90
16838;DHT22;19510;54.486;9.046;2023-02-04T12:02:55;6.40;99.90
16838;DHT22;19510;54.486;9.046;2023-02-04T12:05:29;6.50;99.90
16838;DHT22;19510;54.486;9.046;2023-02-04T12:08:09;6.60;99.90
16838;DHT22;19510;54.486;9.046;2023-02-04T12:10:35;6.60;99.90
16838;DHT22;19510;54.486;9.046;2023-02-04T12:13:12;6.60;99.90
16838;DHT22;19510;54.486;9.046;2023-02-04T12:15:40;6.70;99.90
16838;DHT22;19510;54.486;9.046;2023-02-04T12:18:08;6.80;99.90
16838;DHT22;19510;54.486;9.046;2023-02-04T12:20:39;6.80;99.90
16838;DHT22;19510;54.486;9.046;2023-02-04T12:23:09;6.80;99.90
16838;DHT22;19510;54.486;9.046;2023-02-04T12:25:35;6.70;99.90
16838;DHT22;19510;54.486;9.046;2023-02-04T12:28:00;6.60;99.90
16838;DHT22;19510;54.486;9.046;2023-02-04T12:30:27;6.60;99.90
16838;DHT22;19510;54.486;9.046;2023-02-04T12:32:52;6.60;99.90
16838;DHT22;19510;54.486;9.046;2023-02-04T12:35:18;6.50;99.90
16838;DHT22;19510;54.486;9.046;2023-02-04T12:37:44;6.50;99.90
16838;DHT22;19510;54.486;9.046;2023-02-04T12:40:17;6.40;99.90
16838;DHT22;19510;54.486;9.046;2023-02-04T12:42:46;6.40;99.90
16838;DHT22;19510;54.486;9.046;2023-02-04T12:45:14;6.40;99.90
16838;DHT22;19510;54.486;9.046;2023-02-04T12:47:40;6.30;99.90
16838;DHT22;19510;54.486;9.046;2023-02-04T12:50:07;6.30;99.90
16838;DHT22;19510;54.486;9.046;2023-02-04T12:52:33;6.30;99.90
16838;DHT22;19510;54.486;9.046;2023-02-04T12:54:59;6.30;99.90
16838;DHT22;19510;54.486;9.046;2023-02-04T12:57:26;6.30;99.90
16838;DHT22;19510;54.486;9.046;2023-02-04T12:59:51;6.30;99.90
16838;DHT22;19510;54.486;9.046;2023-02-04T13:02:17;6.30;99.90
16838;DHT22;19510;54.486;9.046;2023-02-04T13:04:45;6.20;99.90
16838;DHT22;19510;54.486;9.046;2023-02-04T13:07:13;6.10;99.90
16838;DHT22;19510;54.486;9.046;2023-02-04T13:09:41;6.10;99.90
16838;DHT22;19510;54.486;9.046;2023-02-04T13:12:09;6.10;99.90
16838;DHT22;19510;54.486;9.046;2023-02-04T13:14:39;6.10;99.90
16838;DHT22;19510;54.486;9.046;2023-02-04T13:17:05;6.00;99.90
16838;DHT22;19510;54.486;9.046;2023-02-04T13:19:33;6.00;99.90
16838;DHT22;19510;54.486;9.046;2023-02-04T13:22:00;6.00;99.90
16838;DHT22;19510;54.486;9.046;2023-02-04T13:24:28;6.00;99.90
16838;DHT22;19510;54.486;9.046;2023-02-04T13:26:56;6.00;99.90
16838;DHT22;19510;54.486;9.046;2023-02-04T13:29:24;6.00;99.90
16838;DHT22;19510;54.486;9.046;2023-02-04T13:31:49;6.00;99.90
16838;DHT22;19510;54.486;9.046;2023-02-04T13:34:18;6.10;99.90
16838;DHT22;19510;54.486;9.046;2023-02-04T13:36:46;6.10;99.90
16838;DHT22;19510;54.486;9.046;2023-02-04T13:39:14;6.10;99.90
16838;DHT22;19510;54.486;9.046;2023-02-04T13:41:40;6.10;99.90
16838;DHT22;19510;54.486;9.046;2023-02-04T13:44:06;6.10;99.90
16838;DHT22;19510;54.486;9.046;2023-02-04T13:46:32;6.10;99.90
16838;DHT22;19510;54.486;9.046;2023-02-04T13:48:58;6.10;99.90
16838;DHT22;19510;54.486;9.046;2023-02-04T13:51:24;6.10;99.90
16838;DHT22;19510;54.486;9.046;2023-02-04T13:53:52;6.00;99.90
16838;DHT22;19510;54.486;9.046;2023-02-04T13:56:20;6.10;99.90
16838;DHT22;19510;54.486;9.046;2023-02-04T13:58:46;6.10;99.90
16838;DHT22;19510;54.486;9.046;2023-02-04T14:01:14;6.00;99.90
16838;DHT22;19510;54.486;9.046;2023-02-04T14:03:42;6.00;99.90
16838;DHT22;19510;54.486;9.046;2023-02-04T14:06:08;5.90;99.90
16838;DHT22;19510;54.486;9.046;2023-02-04T14:08:34;5.80;99.90
16838;DHT22;19510;54.486;9.046;2023-02-04T14:11:00;5.80;99.90
16838;DHT22;19510;54.486;9.046;2023-02-04T14:13:26;5.70;99.90
16838;DHT22;19510;54.486;9.046;2023-02-04T14:15:51;5.80;99.90
16838;DHT22;19510;54.486;9.046;2023-02-04T14:18:17;5.80;99.90
16838;DHT22;19510;54.486;9.046;2023-02-04T14:20:43;5.80;99.90
16838;DHT22;19510;54.486;9.046;2023-02-04T14:23:09;5.90;99.90
16838;DHT22;19510;54.486;9.046;2023-02-04T14:25:36;5.90;99.90
16838;DHT22;19510;54.486;9.046;2023-02-04T14:28:02;5.80;99.90
16838;DHT22;19510;54.486;9.046;2023-02-04T14:30:28;5.80;99.90
16838;DHT22;19510;54.486;9.046;2023-02-04T14:32:55;5.80;99.90
16838;DHT22;19510;54.486;9.046;2023-02-04T14:35:21;5.80;99.90
16838;DHT22;19510;54.486;9.046;2023-02-04T14:37:56;5.90;99.90
16838;DHT22;19510;54.486;9.046;2023-02-04T14:40:23;5.90;99.90
16838;DHT22;19510;54.486;9.046;2023-02-04T14:42:48;5.80;99.90
16838;DHT22;19510;54.486;9.046;2023-02-04T14:45:16;5.80;99.90
16838;DHT22;19510;54.486;9.046;2023-02-04T14:47:42;5.80;99.90
16838;DHT22;19510;54.486;9.046;2023-02-04T14:50:13;5.80;99.90
16838;DHT22;19510;54.486;9.046;2023-02-04T14:52:41;5.80;99.90
16838;DHT22;19510;54.486;9.046;2023-02-04T14:55:08;5.80;99.90
16838;DHT22;19510;54.486;9.046;2023-02-04T14:57:38;5.80;99.90
16838;DHT22;19510;54.486;9.046;2023-02-04T15:00:04;5.70;99.90
16838;DHT22;19510;54.486;9.046;2023-02-04T15:02:31;5.70;99.90
16838;DHT22;19510;54.486;9.046;2023-02-04T15:04:56;5.60;99.90
16838;DHT22;19510;54.486;9.046;2023-02-04T15:07:24;5.60;99.90
16838;DHT22;19510;54.486;9.046;2023-02-04T15:09:52;5.60;99.90
16838;DHT22;19510;54.486;9.046;2023-02-04T15:12:20;5.50;99.90
16838;DHT22;19510;54.486;9.046;2023-02-04T15:14:47;5.50;99.90
16838;DHT22;19510;54.486;9.046;2023-02-04T15:17:12;5.40;99.90
16838;DHT22;19510;54.486;9.046;2023-02-04T15:19:40;5.40;99.90
16838;DHT22;19510;54.486;9.046;2023-02-04T15:22:06;5.30;99.90
16838;DHT22;19510;54.486;9.046;2023-02-04T15:24:34;5.30;99.90
16838;DHT22;19510;54.486;9.046;2023-02-04T15:27:00;5.20;99.90
16838;DHT22;19510;54.486;9.046;2023-02-04T15:29:28;5.20;99.90
16838;DHT22;19510;54.486;9.046;2023-02-04T15:31:56;5.10;99.90
16838;DHT22;19510;54.486;9.046;2023-02-04T15:34:22;5.10;99.90
16838;DHT22;19510;54.486;9.046;2023-02-04T15:36:52;5.40;99.90
16838;DHT22;19510;54.486;9.046;2023-02-04T15:39:21;6.10;99.90
16838;DHT22;19510;54.486;9.046;2023-02-04T15:41:49;6.50;99.90
16838;DHT22;19510;54.486;9.046;2023-02-04T15:44:14;6.40;99.90
16838;DHT22;19510;54.486;9.046;2023-02-04T15:46:44;6.20;99.90
16838;DHT22;19510;54.486;9.046;2023-02-04T15:49:14;6.00;99.90
16838;DHT22;19510;54.486;9.046;2023-02-04T15:51:42;5.70;99.90
16838;DHT22;19510;54.486;9.046;2023-02-04T15:54:17;5.60;99.90
16838;DHT22;19510;54.486;9.046;2023-02-04T15:56:43;5.50;99.90
16838;DHT22;19510;54.486;9.046;2023-02-04T15:59:11;5.40;99.90
16838;DHT22;19510;54.486;9.046;2023-02-04T16:01:40;5.20;99.90
16838;DHT22;19510;54.486;9.046;2023-02-04T16:04:10;5.10;99.90
16838;DHT22;19510;54.486;9.046;2023-02-04T16:06:38;5.00;99.90
16838;DHT22;19510;54.486;9.046;2023-02-04T16:09:04;4.90;99.90
16838;DHT22;19510;54.486;9.046;2023-02-04T16:11:30;4.90;99.90
16838;DHT22;19510;54.486;9.046;2023-02-04T16:13:57;4.90;99.90
16838;DHT22;19510;54.486;9.046;2023-02-04T16:16:24;4.80;99.90
16838;DHT22;19510;54.486;9.046;2023-02-04T16:18:50;4.80;99.90
16838;DHT22;19510;54.486;9.046;2023-02-04T16:21:18;4.80;99.90
16838;DHT22;19510;54.486;9.046;2023-02-04T16:23:46;4.70;99.90
16838;DHT22;19510;54.486;9.046;2023-02-04T16:26:11;4.70;99.90
16838;DHT22;19510;54.486;9.046;2023-02-04T16:28:39;4.60;99.90
16838;DHT22;19510;54.486;9.046;2023-02-04T16:31:05;4.60;99.90
16838;DHT22;19510;54.486;9.046;2023-02-04T16:33:34;4.60;99.90
16838;DHT22;19510;54.486;9.046;2023-02-04T16:36:06;4.60;99.90
16838;DHT22;19510;54.486;9.046;2023-02-04T16:38:32;4.60;99.90
16838;DHT22;19510;54.486;9.046;2023-02-04T16:41:01;4.60;99.90
16838;DHT22;19510;54.486;9.046;2023-02-04T16:43:26;4.50;99.90
16838;DHT22;19510;54.486;9.046;2023-02-04T16:45:53;4.50;99.90
16838;DHT22;19510;54.486;9.046;2023-02-04T16:48:22;4.50;99.90
16838;DHT22;19510;54.486;9.046;2023-02-04T16:50:47;4.50;99.90
16838;DHT22;19510;54.486;9.046;2023-02-04T16:53:15;4.50;99.90
16838;DHT22;19510;54.486;9.046;2023-02-04T16:55:44;4.40;99.90
16838;DHT22;19510;54.486;9.046;2023-02-04T16:58:11;4.40;99.90
16838;DHT22;19510;54.486;9.046;2023-02-04T17:00:37;4.40;99.90
16838;DHT22;19510;54.486;9.046;2023-02-04T17:03:09;4.40;99.90
16838;DHT22;19510;54.486;9.046;2023-02-04T17:05:36;4.30;99.90
16838;DHT22;19510;54.486;9.046;2023-02-04T17:08:04;4.30;99.90
16838;DHT22;19510;54.486;9.046;2023-02-04T17:10:32;4.30;99.90
16838;DHT22;19510;54.486;9.046;2023-02-04T17:13:16;4.30;99.90
16838;DHT22;19510;54.486;9.046;2023-02-04T17:15:42;4.30;99.90
16838;DHT22;19510;54.486;9.046;2023-02-04T17:18:10;4.20;99.90
16838;DHT22;19510;54.486;9.046;2023-02-04T17:20:38;4.20;99.90
16838;DHT22;19510;54.486;9.046;2023-02-04T17:23:03;4.10;99.90
16838;DHT22;19510;54.486;9.046;2023-02-04T17:25:29;4.00;99.90
16838;DHT22;19510;54.486;9.046;2023-02-04T17:27:55;4.00;99.90
16838;DHT22;19510;54.486;9.046;2023-02-04T17:30:21;4.00;99.90
16838;DHT22;19510;54.486;9.046;2023-02-04T17:32:49;4.00;99.90
16838;DHT22;19510;54.486;9.046;2023-02-04T17:35:15;3.90;99.90
16838;DHT22;19510;54.486;9.046;2023-02-04T17:37:42;3.90;99.90
16838;DHT22;19510;54.486;9.046;2023-02-04T17:40:09;3.90;99.90
16838;DHT22;19510;54.486;9.046;2023-02-04T17:42:40;3.80;99.90
16838;DHT22;19510;54.486;9.046;2023-02-04T17:45:09;3.80;99.90
16838;DHT22;19510;54.486;9.046;2023-02-04T17:47:41;3.70;99.90
16838;DHT22;19510;54.486;9.046;2023-02-04T17:50:09;3.60;99.90
16838;DHT22;19510;54.486;9.046;2023-02-04T17:52:44;3.60;99.90
16838;DHT22;19510;54.486;9.046;2023-02-04T17:55:26;3.60;99.90
16838;DHT22;19510;54.486;9.046;2023-02-04T17:57:53;3.60;99.90
16838;DHT22;19510;54.486;9.046;2023-02-04T18:00:22;3.60;99.90
16838;DHT22;19510;54.486;9.046;2023-02-04T18:02:51;3.50;99.90
16838;DHT22;19510;54.486;9.046;2023-02-04T18:05:22;3.50;99.90
16838;DHT22;19510;54.486;9.046;2023-02-04T18:10:39;3.40;99.90
16838;DHT22;19510;54.486;9.046;2023-02-04T18:13:16;3.40;99.90
16838;DHT22;19510;54.486;9.046;2023-02-04T18:15:53;3.30;99.90
16838;DHT22;19510;54.486;9.046;2023-02-04T18:18:21;3.40;99.90
16838;DHT22;19510;54.486;9.046;2023-02-04T18:21:01;3.30;99.90
16838;DHT22;19510;54.486;9.046;2023-02-04T18:23:39;3.30;99.90
16838;DHT22;19510;54.486;9.046;2023-02-04T18:26:17;3.30;99.90
16838;DHT22;19510;54.486;9.046;2023-02-04T18:28:47;3.30;99.90
16838;DHT22;19510;54.486;9.046;2023-02-04T18:31:34;3.30;99.90
16838;DHT22;19510;54.486;9.046;2023-02-04T18:34:09;3.30;99.90
16838;DHT22;19510;54.486;9.046;2023-02-04T18:36:45;3.30;99.90
16838;DHT22;19510;54.486;9.046;2023-02-04T18:39:17;3.30;99.90
16838;DHT22;19510;54.486;9.046;2023-02-04T18:41:46;3.30;99.90
16838;DHT22;19510;54.486;9.046;2023-02-04T18:44:32;3.30;99.90
16838;DHT22;19510;54.486;9.046;2023-02-04T18:47:19;3.20;99.90
16838;DHT22;19510;54.486;9.046;2023-02-04T18:49:49;3.30;99.90
16838;DHT22;19510;54.486;9.046;2023-02-04T18:52:21;3.20;99.90
16838;DHT22;19510;54.486;9.046;2023-02-04T18:54:54;3.20;99.90
16838;DHT22;19510;54.486;9.046;2023-02-04T18:57:39;3.20;99.90
16838;DHT22;19510;54.486;9.046;2023-02-04T19:02:51;3.20;99.90
16838;DHT22;19510;54.486;9.046;2023-02-04T19:05:39;3.20;99.90
16838;DHT22;19510;54.486;9.046;2023-02-04T19:10:43;3.10;99.90
16838;DHT22;19510;54.486;9.046;2023-02-04T19:13:21;3.20;99.90
16838;DHT22;19510;54.486;9.046;2023-02-04T19:15:58;3.10;99.90
16838;DHT22;19510;54.486;9.046;2023-02-04T19:18:40;3.00;99.90
16838;DHT22;19510;54.486;9.046;2023-02-04T19:23:52;3.10;99.90
16838;DHT22;19510;54.486;9.046;2023-02-04T19:26:29;3.10;99.90
16838;DHT22;19510;54.486;9.046;2023-02-04T19:28:56;3.10;99.90
16838;DHT22;19510;54.486;9.046;2023-02-04T19:31:29;3.00;99.90
16838;DHT22;19510;54.486;9.046;2023-02-04T19:34:00;3.00;99.90
16838;DHT22;19510;54.486;9.046;2023-02-04T19:36:43;3.00;99.90
16838;DHT22;19510;54.486;9.046;2023-02-04T19:41:51;3.00;99.90
16838;DHT22;19510;54.486;9.046;2023-02-04T19:44:33;3.00;99.90
16838;DHT22;19510;54.486;9.046;2023-02-04T19:47:39;3.00;99.90
16838;DHT22;19510;54.486;9.046;2023-02-04T19:52:48;2.90;99.90
16838;DHT22;19510;54.486;9.046;2023-02-04T19:58:35;2.90;99.90
16838;DHT22;19510;54.486;9.046;2023-02-04T20:01:05;2.90;99.90
16838;DHT22;19510;54.486;9.046;2023-02-04T20:06:35;2.90;99.90
16838;DHT22;19510;54.486;9.046;2023-02-04T20:09:21;2.80;99.90
16838;DHT22;19510;54.486;9.046;2023-02-04T20:14:27;2.80;99.90
16838;DHT22;19510;54.486;9.046;2023-02-04T20:17:00;2.70;99.90
16838;DHT22;19510;54.486;9.046;2023-02-04T20:24:47;2.80;99.90
16838;DHT22;19510;54.486;9.046;2023-02-04T20:27:35;2.70;99.90
16838;DHT22;19510;54.486;9.046;2023-02-04T20:32:43;2.70;99.90
16838;DHT22;19510;54.486;9.046;2023-02-04T20:37:42;2.70;99.90
16838;DHT22;19510;54.486;9.046;2023-02-04T20:42:50;2.60;99.90
16838;DHT22;19510;54.486;9.046;2023-02-04T20:45:23;2.50;99.90
16838;DHT22;19510;54.486;9.046;2023-02-04T20:47:55;2.50;99.90
16838;DHT22;19510;54.486;9.046;2023-02-04T20:50:40;2.50;99.90
16838;DHT22;19510;54.486;9.046;2023-02-04T20:53:26;2.50;99.90
16838;DHT22;19510;54.486;9.046;2023-02-04T20:58:36;2.50;99.90
16838;DHT22;19510;54.486;9.046;2023-02-04T21:04:21;2.50;99.90
16838;DHT22;19510;54.486;9.046;2023-02-04T21:06:56;2.50;99.90
16838;DHT22;19510;54.486;9.046;2023-02-04T21:09:28;2.50;99.90
16838;DHT22;19510;54.486;9.046;2023-02-04T21:12:00;2.50;99.90
16838;DHT22;19510;54.486;9.046;2023-02-04T21:14:31;2.50;99.90
16838;DHT22;19510;54.486;9.046;2023-02-04T21:16:57;2.40;99.90
16838;DHT22;19510;54.486;9.046;2023-02-04T21:19:24;2.40;99.90
16838;DHT22;19510;54.486;9.046;2023-02-04T21:21:50;2.40;99.90
16838;DHT22;19510;54.486;9.046;2023-02-04T21:24:16;2.40;99.90
16838;DHT22;19510;54.486;9.046;2023-02-04T21:26:42;2.40;99.90
16838;DHT22;19510;54.486;9.046;2023-02-04T21:29:17;2.40;99.90
16838;DHT22;19510;54.486;9.046;2023-02-04T21:31:42;2.40;99.90
16838;DHT22;19510;54.486;9.046;2023-02-04T21:34:13;2.30;99.90
16838;DHT22;19510;54.486;9.046;2023-02-04T21:36:40;2.30;99.90
16838;DHT22;19510;54.486;9.046;2023-02-04T21:39:11;2.30;99.90
16838;DHT22;19510;54.486;9.046;2023-02-04T21:41:37;2.30;99.90
16838;DHT22;19510;54.486;9.046;2023-02-04T21:44:02;2.30;99.90
16838;DHT22;19510;54.486;9.046;2023-02-04T21:46:31;2.20;99.90
16838;DHT22;19510;54.486;9.046;2023-02-04T21:48:57;2.30;99.90
16838;DHT22;19510;54.486;9.046;2023-02-04T21:51:23;2.30;99.90
16838;DHT22;19510;54.486;9.046;2023-02-04T21:53:51;2.20;99.90
16838;DHT22;19510;54.486;9.046;2023-02-04T21:56:18;2.20;99.90
16838;DHT22;19510;54.486;9.046;2023-02-04T21:58:44;2.20;99.90
16838;DHT22;19510;54.486;9.046;2023-02-04T22:01:09;2.20;99.90
16838;DHT22;19510;54.486;9.046;2023-02-04T22:03:38;2.20;99.90
16838;DHT22;19510;54.486;9.046;2023-02-04T22:06:16;2.20;99.90
16838;DHT22;19510;54.486;9.046;2023-02-04T22:08:42;2.10;99.90
16838;DHT22;19510;54.486;9.046;2023-02-04T22:11:07;2.10;99.90
16838;DHT22;19510;54.486;9.046;2023-02-04T22:13:35;2.10;99.90
16838;DHT22;19510;54.486;9.046;2023-02-04T22:16:01;2.10;99.90
16838;DHT22;19510;54.486;9.046;2023-02-04T22:18:27;2.10;99.90
16838;DHT22;19510;54.486;9.046;2023-02-04T22:20:52;2.00;99.90
16838;DHT22;19510;54.486;9.046;2023-02-04T22:23:20;2.10;99.90
16838;DHT22;19510;54.486;9.046;2023-02-04T22:25:51;2.00;99.90
16838;DHT22;19510;54.486;9.046;2023-02-04T22:28:16;2.10;99.90
16838;DHT22;19510;54.486;9.046;2023-02-04T22:30:42;2.10;99.90
16838;DHT22;19510;54.486;9.046;2023-02-04T22:33:08;2.00;99.90
16838;DHT22;19510;54.486;9.046;2023-02-04T22:35:38;2.00;99.90
16838;DHT22;19510;54.486;9.046;2023-02-04T22:38:04;2.00;99.90
16838;DHT22;19510;54.486;9.046;2023-02-04T22:40:34;2.10;99.90
16838;DHT22;19510;54.486;9.046;2023-02-04T22:43:02;2.00;99.90
16838;DHT22;19510;54.486;9.046;2023-02-04T22:45:33;2.00;99.90
16838;DHT22;19510;54.486;9.046;2023-02-04T22:48:02;2.00;99.90
16838;DHT22;19510;54.486;9.046;2023-02-04T22:50:30;2.00;99.90
16838;DHT22;19510;54.486;9.046;2023-02-04T22:52:56;2.00;99.90
16838;DHT22;19510;54.486;9.046;2023-02-04T22:55:24;1.90;99.90
16838;DHT22;19510;54.486;9.046;2023-02-04T22:57:50;1.90;99.90
16838;DHT22;19510;54.486;9.046;2023-02-04T23:00:16;1.90;99.90
16838;DHT22;19510;54.486;9.046;2023-02-04T23:02:43;1.90;99.90
16838;DHT22;19510;54.486;9.046;2023-02-04T23:05:11;1.90;99.90
16838;DHT22;19510;54.486;9.046;2023-02-04T23:07:41;1.90;99.90
16838;DHT22;19510;54.486;9.046;2023-02-04T23:10:07;1.90;99.90
16838;DHT22;19510;54.486;9.046;2023-02-04T23:12:33;1.90;99.90
16838;DHT22;19510;54.486;9.046;2023-02-04T23:15:00;1.90;99.90
16838;DHT22;19510;54.486;9.046;2023-02-04T23:17:31;1.90;99.90
16838;DHT22;19510;54.486;9.046;2023-02-04T23:20:01;1.80;99.90
16838;DHT22;19510;54.486;9.046;2023-02-04T23:22:29;1.80;99.90
16838;DHT22;19510;54.486;9.046;2023-02-04T23:24:57;1.80;99.90
16838;DHT22;19510;54.486;9.046;2023-02-04T23:27:25;1.90;99.90
16838;DHT22;19510;54.486;9.046;2023-02-04T23:29:53;1.90;99.90
16838;DHT22;19510;54.486;9.046;2023-02-04T23:32:20;1.90;99.90
16838;DHT22;19510;54.486;9.046;2023-02-04T23:34:55;1.90;99.90
16838;DHT22;19510;54.486;9.046;2023-02-04T23:37:20;1.90;99.90
16838;DHT22;19510;54.486;9.046;2023-02-04T23:39:46;1.90;99.90
16838;DHT22;19510;54.486;9.046;2023-02-04T23:42:16;1.90;99.90
16838;DHT22;19510;54.486;9.046;2023-02-04T23:44:42;1.90;99.90
16838;DHT22;19510;54.486;9.046;2023-02-04T23:47:10;1.90;99.90
16838;DHT22;19510;54.486;9.046;2023-02-04T23:49:37;1.90;99.90
16838;DHT22;19510;54.486;9.046;2023-02-04T23:52:05;1.90;99.90
16838;DHT22;19510;54.486;9.046;2023-02-04T23:54:35;1.90;99.90
16838;DHT22;19510;54.486;9.046;2023-02-04T23:57:01;1.90;99.90
16838;DHT22;19510;54.486;9.046;2023-02-04T23:59:27;1.90;99.90
